Time;durP1;ratioP1;P1;durP2;ratioP2;P2;SDS_P1;SDS_P2;PMS_P1;PMS_P2;Temp;Humidity;BMP_temperature;BMP_pressure;BME280_temperature;BME280_humidity;BME280_pressure;Samples;Min_cycle;Max_cycle;Signal;HPM_P1;HPM_P2
2023/11/19 00:02:10;;;;;;;15.93;8.82;;;12.10;94.80;;;;;;9158039;19;20095;-72
2023/11/19 00:05:16;;;;;;;12.18;8.25;;;12.10;94.70;;;;;;9159102;19;20017;-73
2023/11/19 00:08:24;;;;;;;14.13;9.38;;;12.10;95.20;;;;;;9159871;19;20026;-72
2023/11/19 00:11:30;;;;;;;17.35;9.32;;;12.10;93.10;;;;;;9158843;19;20019;-71
2023/11/19 00:14:40;;;;;;;14.63;8.82;;;12.00;92.10;;;;;;9157992;19;20022;-71
2023/11/19 00:17:48;;;;;;;13.13;9.23;;;12.00;92.10;;;;;;9157827;19;20090;-70
2023/11/19 00:20:56;;;;;;;13.65;9.13;;;12.10;92.10;;;;;;9158915;19;20834;-72
2023/11/19 00:24:02;;;;;;;12.70;8.88;;;12.10;92.10;;;;;;9159785;19;20011;-74
2023/11/19 00:27:09;;;;;;;18.15;10.65;;;12.20;92.10;;;;;;9157537;19;20029;-75
2023/11/19 00:30:18;;;;;;;22.88;10.60;;;12.20;92.10;;;;;;9165697;19;20011;-74
2023/11/19 00:33:25;;;;;;;20.83;10.98;;;12.20;92.10;;;;;;9164757;19;20009;-74
2023/11/19 00:36:31;;;;;;;15.00;11.15;;;12.30;92.10;;;;;;9166737;19;20025;-75
2023/11/19 00:39:38;;;;;;;18.70;11.60;;;12.30;92.10;;;;;;9168695;19;20026;-74
2023/11/19 00:42:44;;;;;;;21.02;13.05;;;12.30;92.20;;;;;;9165182;19;20014;-74
2023/11/19 00:45:54;;;;;;;19.95;11.95;;;12.30;92.20;;;;;;9165909;19;20021;-74
2023/11/19 00:49:00;;;;;;;24.95;12.43;;;12.40;92.10;;;;;;9168662;19;20829;-75
2023/11/19 00:52:08;;;;;;;26.33;13.10;;;12.40;92.10;;;;;;9164391;19;20022;-76
2023/11/19 00:55:15;;;;;;;26.45;13.57;;;12.40;92.10;;;;;;9160748;19;20014;-74
2023/11/19 00:58:22;;;;;;;25.38;12.57;;;12.50;92.10;;;;;;9163016;19;20826;-74
2023/11/19 01:01:30;;;;;;;38.85;14.35;;;12.50;92.10;;;;;;9162963;19;20015;-73
2023/11/19 01:04:38;;;;;;;27.98;13.63;;;12.50;92.20;;;;;;9163127;19;20107;-74
2023/11/19 01:07:43;;;;;;;29.25;13.18;;;12.60;92.40;;;;;;9158407;19;20691;-74
2023/11/19 01:10:51;;;;;;;28.50;12.90;;;12.60;92.10;;;;;;9164850;19;20023;-74
2023/11/19 01:13:57;;;;;;;29.33;12.93;;;12.60;92.20;;;;;;9163293;19;20376;-74
2023/11/19 01:17:08;;;;;;;30.33;12.35;;;12.70;92.20;;;;;;9162561;19;20033;-74
2023/11/19 01:20:14;;;;;;;27.95;11.98;;;12.70;92.20;;;;;;9161801;19;20018;-74
2023/11/19 01:23:21;;;;;;;33.13;12.75;;;12.70;92.20;;;;;;9162293;19;20019;-75
2023/11/19 01:26:27;;;;;;;23.92;11.75;;;12.80;92.20;;;;;;9160274;19;20093;-75
2023/11/19 01:29:34;;;;;;;23.10;11.65;;;13.20;92.30;;;;;;9164790;19;20038;-73
2023/11/19 01:32:43;;;;;;;20.20;11.50;;;12.80;92.20;;;;;;9166795;19;20006;-73
2023/11/19 01:35:50;;;;;;;25.70;11.70;;;12.90;92.20;;;;;;9165667;19;20014;-73
2023/11/19 01:38:56;;;;;;;21.42;11.40;;;12.90;92.20;;;;;;9165702;19;20040;-74
2023/11/19 01:42:03;;;;;;;20.45;11.60;;;12.90;92.20;;;;;;9161155;19;20459;-72
2023/11/19 01:45:10;;;;;;;32.45;11.07;;;12.90;92.20;;;;;;9161428;19;20391;-74
2023/11/19 01:48:20;;;;;;;21.83;11.77;;;12.90;92.20;;;;;;9163032;19;20699;-72
2023/11/19 01:51:26;;;;;;;25.60;11.57;;;13.00;92.60;;;;;;9163725;19;20082;-72
2023/11/19 01:54:34;;;;;;;23.05;10.75;;;13.00;92.40;;;;;;9165334;19;20019;-73
2023/11/19 01:57:41;;;;;;;33.22;11.48;;;13.10;93.30;;;;;;9165871;19;20058;-72
2023/11/19 02:00:49;;;;;;;23.00;10.07;;;13.40;92.60;;;;;;9163178;19;20022;-74
2023/11/19 02:03:58;;;;;;;27.65;10.48;;;13.10;92.30;;;;;;9162483;19;20048;-74
2023/11/19 02:07:06;;;;;;;23.42;8.75;;;13.10;92.30;;;;;;9162853;19;20018;-74
2023/11/19 02:10:14;;;;;;;35.72;9.13;;;13.10;92.30;;;;;;9163843;19;20015;-72
2023/11/19 02:13:22;;;;;;;24.25;7.70;;;13.20;92.30;;;;;;9164454;19;20368;-72
2023/11/19 02:16:27;;;;;;;31.10;8.60;;;13.10;92.30;;;;;;9164704;19;20586;-72
2023/11/19 02:19:38;;;;;;;25.55;7.45;;;13.20;92.30;;;;;;9163189;19;20074;-74
2023/11/19 02:22:44;;;;;;;28.38;7.20;;;13.20;92.30;;;;;;9159198;19;20018;-74
2023/11/19 02:26:05;;;;;;;26.95;6.63;;;13.20;92.30;;;;;;9159921;19;20018;-74
2023/11/19 02:29:13;;;;;;;30.27;6.97;;;13.20;92.40;;;;;;9161921;19;20010;-74
2023/11/19 02:32:21;;;;;;;24.85;6.75;;;13.30;92.40;;;;;;9163638;19;20018;-74
2023/11/19 02:35:31;;;;;;;25.67;6.13;;;13.20;92.30;;;;;;9163246;19;20019;-72
2023/11/19 02:38:37;;;;;;;39.55;7.32;;;13.30;92.30;;;;;;9162714;19;20122;-73
2023/11/19 02:41:44;;;;;;;27.85;6.35;;;13.30;92.30;;;;;;9161210;19;20010;-73
2023/11/19 02:44:52;;;;;;;34.10;5.85;;;13.30;92.40;;;;;;9159645;19;20074;-72
2023/11/19 02:48:01;;;;;;;33.45;5.25;;;13.30;92.40;;;;;;9161698;19;20026;-73
2023/11/19 02:51:09;;;;;;;41.15;4.85;;;13.30;92.30;;;;;;9162633;19;20018;-73
2023/11/19 02:54:17;;;;;;;38.75;5.82;;;13.30;92.30;;;;;;9162728;19;20018;-72
2023/11/19 02:57:24;;;;;;;30.45;4.80;;;13.30;92.30;;;;;;9163205;19;20029;-72
2023/11/19 03:00:37;;;;;;;28.70;4.53;;;13.30;92.40;;;;;;9162835;19;20688;-73
2023/11/19 03:03:43;;;;;;;22.17;4.53;;;13.30;92.40;;;;;;9161164;19;20006;-73
2023/11/19 03:06:50;;;;;;;35.42;4.57;;;13.30;92.30;;;;;;9161075;19;20014;-72
2023/11/19 03:09:56;;;;;;;28.02;3.95;;;13.30;92.50;;;;;;9158625;19;20014;-72
2023/11/19 03:13:04;;;;;;;29.77;4.45;;;13.40;92.50;;;;;;9161091;19;20033;-73
2023/11/19 03:16:13;;;;;;;37.72;5.07;;;13.40;92.50;;;;;;9159698;19;20555;-72
2023/11/19 03:19:21;;;;;;;29.10;5.68;;;13.40;92.60;;;;;;9156953;19;20018;-73
2023/11/19 03:22:30;;;;;;;33.20;4.80;;;13.40;92.60;;;;;;9157538;19;20038;-73
2023/11/19 03:25:38;;;;;;;43.58;6.38;;;13.30;92.80;;;;;;9159935;19;20106;-72
2023/11/19 03:28:43;;;;;;;27.75;4.00;;;13.50;92.90;;;;;;9159138;19;20021;-73
2023/11/19 03:31:53;;;;;;;31.38;4.53;;;13.40;92.80;;;;;;9161761;19;20014;-73
2023/11/19 03:34:59;;;;;;;41.25;4.90;;;13.40;93.40;;;;;;9162304;19;20042;-73
2023/11/19 03:38:08;;;;;;;47.50;6.80;;;13.40;93.60;;;;;;9160555;19;20022;-73
2023/11/19 03:41:14;;;;;;;36.83;5.18;;;13.30;92.20;;;;;;9161891;19;20019;-73
2023/11/19 03:44:21;;;;;;;38.58;5.22;;;13.30;92.20;;;;;;9154623;19;20019;-73
2023/11/19 03:47:30;;;;;;;35.03;4.40;;;13.30;92.20;;;;;;9158768;19;20014;-74
2023/11/19 03:50:37;;;;;;;41.08;5.35;;;13.30;92.20;;;;;;9161013;19;20033;-73
2023/11/19 03:53:43;;;;;;;47.70;4.85;;;13.20;92.20;;;;;;9159251;19;20014;-74
2023/11/19 03:56:50;;;;;;;35.15;4.63;;;13.20;92.20;;;;;;9160436;19;20014;-74
2023/11/19 03:59:56;;;;;;;38.78;5.18;;;13.20;92.20;;;;;;9160496;19;20467;-73
2023/11/19 04:03:06;;;;;;;46.40;5.32;;;13.20;92.30;;;;;;9159504;19;20014;-74
2023/11/19 04:06:11;;;;;;;40.22;4.65;;;13.30;92.50;;;;;;9169381;19;20018;-74
2023/11/19 04:09:19;;;;;;;44.92;5.15;;;13.20;93.00;;;;;;9165535;19;20029;-75
2023/11/19 04:12:25;;;;;;;63.55;5.72;;;13.20;92.30;;;;;;9168969;19;20014;-74
2023/11/19 04:15:32;;;;;;;45.42;6.00;;;13.10;92.30;;;;;;9168409;19;20009;-75
2023/11/19 04:18:40;;;;;;;47.58;6.72;;;13.10;92.30;;;;;;9167032;19;20014;-75
2023/11/19 04:21:48;;;;;;;46.97;4.57;;;13.30;92.40;;;;;;9164961;19;20018;-75
2023/11/19 04:24:53;;;;;;;39.72;5.13;;;13.10;92.10;;;;;;9166307;19;20372;-74
2023/11/19 04:28:02;;;;;;;40.00;5.63;;;13.10;92.10;;;;;;9166148;19;20023;-74
2023/11/19 04:31:09;;;;;;;32.80;5.47;;;12.90;92.10;;;;;;9168893;19;20021;-74
2023/11/19 04:34:19;;;;;;;45.70;5.78;;;13.00;92.10;;;;;;9169243;19;20029;-75
2023/11/19 04:37:24;;;;;;;41.45;5.18;;;12.80;93.30;;;;;;9168519;19;20006;-75
2023/11/19 04:40:33;;;;;;;34.80;4.32;;;12.90;92.10;;;;;;9165542;19;20015;-74
2023/11/19 04:43:39;;;;;;;45.47;6.38;;;12.90;92.00;;;;;;9162858;19;20357;-74
2023/11/19 04:46:47;;;;;;;59.40;7.57;;;12.90;92.00;;;;;;9167558;19;20070;-75
2023/11/19 04:49:55;;;;;;;43.53;5.25;;;12.80;92.00;;;;;;9162400;19;20021;-74
2023/11/19 04:53:03;;;;;;;31.77;4.50;;;12.80;92.00;;;;;;9168281;19;20090;-75
2023/11/19 04:56:13;;;;;;;34.50;5.53;;;12.80;92.00;;;;;;9166925;19;20010;-72
2023/11/19 04:59:20;;;;;;;28.15;6.13;;;12.70;91.90;;;;;;9167908;19;20089;-74
2023/11/19 05:02:25;;;;;;;47.97;7.20;;;12.70;91.90;;;;;;9165197;19;20015;-74
2023/11/19 05:05:36;;;;;;;42.70;5.65;;;12.60;91.90;;;;;;9165627;19;20014;-74
2023/11/19 05:08:41;;;;;;;54.45;6.15;;;12.60;91.90;;;;;;9165534;19;20040;-73
2023/11/19 05:11:48;;;;;;;45.97;6.75;;;12.60;92.30;;;;;;9164994;19;20018;-74
2023/11/19 05:14:56;;;;;;;45.17;5.90;;;12.50;91.90;;;;;;9162251;19;20027;-73
2023/11/19 05:18:04;;;;;;;38.88;5.97;;;12.50;92.00;;;;;;9166384;19;20033;-72
2023/11/19 05:21:12;;;;;;;50.67;6.97;;;12.50;92.00;;;;;;9165614;19;20527;-73
2023/11/19 05:24:20;;;;;;;43.45;5.88;;;12.50;92.00;;;;;;9165933;19;20025;-73
2023/11/19 05:27:26;;;;;;;52.95;8.02;;;12.50;92.00;;;;;;9165885;19;20026;-73
2023/11/19 05:30:34;;;;;;;34.67;6.40;;;12.50;92.00;;;;;;9166190;19;20632;-74
2023/11/19 05:33:39;;;;;;;59.80;8.82;;;12.50;92.00;;;;;;9166316;19;20015;-72
2023/11/19 05:36:49;;;;;;;53.55;7.80;;;12.50;92.00;;;;;;9164353;19;20018;-72
2023/11/19 05:39:55;;;;;;;60.05;5.78;;;12.50;92.00;;;;;;9166152;19;20514;-72
2023/11/19 05:43:02;;;;;;;48.70;5.88;;;12.50;91.90;;;;;;9162719;19;20018;-73
2023/11/19 05:46:08;;;;;;;53.33;7.25;;;12.50;91.90;;;;;;9165348;19;20316;-71
2023/11/19 05:49:19;;;;;;;44.95;6.25;;;12.50;91.90;;;;;;9163889;19;20029;-73
2023/11/19 05:52:28;;;;;;;48.22;7.57;;;12.50;91.90;;;;;;9164168;19;20019;-72
2023/11/19 05:55:44;;;;;;;55.90;7.50;;;12.50;91.90;;;;;;9164831;19;20033;-72
2023/11/19 05:58:50;;;;;;;51.40;7.65;;;12.50;91.90;;;;;;9165744;19;20471;-73
2023/11/19 06:01:59;;;;;;;52.90;7.38;;;12.50;91.90;;;;;;9165853;19;20503;-73
2023/11/19 06:05:05;;;;;;;63.15;7.65;;;12.50;91.90;;;;;;9166159;19;20082;-72
2023/11/19 06:08:16;;;;;;;56.35;7.78;;;12.50;91.80;;;;;;9163950;19;20010;-73
2023/11/19 06:11:21;;;;;;;45.08;6.00;;;12.50;91.80;;;;;;9163031;19;20022;-73
2023/11/19 06:14:31;;;;;;;40.67;6.22;;;12.50;91.80;;;;;;9165149;19;20010;-74
2023/11/19 06:17:36;;;;;;;44.42;5.72;;;12.50;91.80;;;;;;9162283;19;20037;-73
2023/11/19 06:20:44;;;;;;;49.33;7.35;;;12.50;91.80;;;;;;9162425;19;20043;-73
2023/11/19 06:23:53;;;;;;;43.60;8.18;;;12.50;91.80;;;;;;9162436;19;20589;-74
2023/11/19 06:27:00;;;;;;;43.55;5.65;;;12.50;91.80;;;;;;9160907;19;20033;-73
2023/11/19 06:30:07;;;;;;;51.35;7.20;;;12.40;91.70;;;;;;9163251;19;20034;-75
2023/11/19 06:33:15;;;;;;;56.10;9.65;;;12.50;91.70;;;;;;9163051;19;20405;-74
2023/11/19 06:36:21;;;;;;;47.72;6.18;;;12.50;91.70;;;;;;9161967;19;20015;-73
2023/11/19 06:39:31;;;;;;;45.45;5.40;;;12.40;91.70;;;;;;9164304;19;20018;-74
2023/11/19 06:42:36;;;;;;;62.42;7.00;;;12.40;91.90;;;;;;9164262;19;20015;-75
2023/11/19 06:45:44;;;;;;;43.20;7.45;;;12.40;91.70;;;;;;9160311;19;20018;-74
2023/11/19 06:48:49;;;;;;;51.03;7.30;;;12.40;91.70;;;;;;9162617;19;20015;-75
2023/11/19 06:51:57;;;;;;;57.80;7.32;;;12.40;91.60;;;;;;9160604;19;20014;-74
2023/11/19 06:55:06;;;;;;;57.05;7.43;;;12.40;91.70;;;;;;9161040;19;20011;-75
2023/11/19 06:58:15;;;;;;;56.65;7.93;;;12.40;91.60;;;;;;9163158;19;20388;-75
2023/11/19 07:01:20;;;;;;;51.70;7.38;;;12.40;91.60;;;;;;9160568;19;20015;-74
2023/11/19 07:04:28;;;;;;;50.25;6.40;;;12.40;91.80;;;;;;9161671;19;20458;-74
2023/11/19 07:07:35;;;;;;;45.17;6.85;;;12.40;91.50;;;;;;9159170;19;20014;-75
2023/11/19 07:10:47;;;;;;;52.05;7.38;;;12.30;91.50;;;;;;9160229;19;20025;-75
2023/11/19 07:13:52;;;;;;;48.60;6.55;;;12.30;91.50;;;;;;9161199;19;20018;-75
2023/11/19 07:17:00;;;;;;;45.80;6.60;;;12.30;91.50;;;;;;9163170;19;20018;-73
2023/11/19 07:20:06;;;;;;;43.72;6.90;;;12.30;91.50;;;;;;9162189;19;20472;-74
2023/11/19 07:23:14;;;;;;;56.22;7.53;;;12.20;91.50;;;;;;9162950;19;20019;-72
2023/11/19 07:26:24;;;;;;;49.63;6.65;;;12.20;91.60;;;;;;9161367;19;20015;-72
2023/11/19 07:29:31;;;;;;;56.28;6.78;;;12.30;91.60;;;;;;9158194;19;20026;-73
2023/11/19 07:32:38;;;;;;;66.40;7.93;;;12.00;91.60;;;;;;9161483;19;20418;-73
2023/11/19 07:35:46;;;;;;;52.40;6.03;;;12.20;91.50;;;;;;9161320;19;20029;-72
2023/11/19 07:38:51;;;;;;;51.00;7.82;;;12.20;91.50;;;;;;9160509;19;20018;-73
2023/11/19 07:42:02;;;;;;;49.15;6.95;;;12.20;91.50;;;;;;9161166;19;20015;-72
2023/11/19 07:45:09;;;;;;;43.42;6.43;;;12.20;91.50;;;;;;9156391;19;20375;-71
2023/11/19 07:48:17;;;;;;;44.35;6.03;;;12.20;91.50;;;;;;9159293;19;20015;-72
2023/11/19 07:51:23;;;;;;;45.55;6.57;;;12.20;91.50;;;;;;9158785;19;20026;-72
2023/11/19 07:54:30;;;;;;;49.42;7.20;;;12.20;91.50;;;;;;9160510;19;20023;-73
2023/11/19 07:57:38;;;;;;;59.78;7.32;;;12.20;91.50;;;;;;9158892;19;20011;-71
2023/11/19 08:00:46;;;;;;;60.90;7.07;;;12.20;91.50;;;;;;9160511;19;20014;-71
2023/11/19 08:03:51;;;;;;;58.55;8.30;;;12.20;91.50;;;;;;9158223;19;20650;-71
2023/11/19 08:07:02;;;;;;;54.15;7.32;;;12.20;91.40;;;;;;9158794;19;20018;-71
2023/11/19 08:10:09;;;;;;;49.90;7.15;;;12.20;91.40;;;;;;9158394;19;20549;-71
2023/11/19 08:13:19;;;;;;;46.70;6.05;;;12.20;91.40;;;;;;9159631;19;20115;-71
2023/11/19 08:16:25;;;;;;;52.60;9.18;;;12.30;91.50;;;;;;9160888;19;20086;-71
2023/11/19 08:19:33;;;;;;;39.15;6.38;;;12.30;91.50;;;;;;9160837;19;20430;-73
2023/11/19 08:22:39;;;;;;;47.13;6.63;;;12.30;91.40;;;;;;9157681;19;20029;-72
2023/11/19 08:25:46;;;;;;;51.60;7.35;;;12.30;91.40;;;;;;9159826;19;20026;-72
2023/11/19 08:28:54;;;;;;;48.40;6.28;;;12.30;91.40;;;;;;9160264;19;20719;-72
2023/11/19 08:32:03;;;;;;;37.83;5.85;;;12.30;91.40;;;;;;9156085;19;20014;-73
2023/11/19 08:35:10;;;;;;;42.42;6.55;;;12.40;91.40;;;;;;9160633;19;20022;-74
2023/11/19 08:38:18;;;;;;;59.25;5.80;;;12.40;91.40;;;;;;9159577;19;20030;-71
2023/11/19 08:41:38;;;;;;;45.70;7.22;;;12.40;91.40;;;;;;9158944;19;20369;-72
2023/11/19 08:44:54;;;;;;;59.65;8.63;;;12.50;91.40;;;;;;9155618;19;20335;-74
2023/11/19 08:47:59;;;;;;;;;;;12.50;91.40;;;;;;9160500;19;20019;-71
2023/11/19 08:51:08;;;;;;;57.22;7.57;;;12.50;91.40;;;;;;9162708;19;19921;-72
2023/11/19 08:54:13;;;;;;;55.17;6.85;;;12.50;91.40;;;;;;9169975;19;20006;-72
2023/11/19 08:57:21;;;;;;;42.45;5.80;;;12.50;91.30;;;;;;9168289;19;20022;-72
2023/11/19 09:00:29;;;;;;;40.22;5.60;;;12.50;91.30;;;;;;9166366;19;20025;-72
2023/11/19 09:03:37;;;;;;;44.67;6.32;;;12.60;91.30;;;;;;9170746;19;20018;-72
2023/11/19 09:06:43;;;;;;;42.60;5.80;;;12.60;91.30;;;;;;9167441;19;20014;-72
2023/11/19 09:09:51;;;;;;;46.25;6.82;;;12.60;91.30;;;;;;9166811;19;20003;-71
2023/11/19 09:12:56;;;;;;;55.90;7.03;;;12.70;91.30;;;;;;9165413;19;20026;-71
2023/11/19 09:16:08;;;;;;;63.53;6.45;;;12.70;91.30;;;;;;9169987;19;20017;-72
2023/11/19 09:19:14;;;;;;;45.17;6.07;;;12.80;91.30;;;;;;9169645;19;20015;-74
2023/11/19 09:22:22;;;;;;;54.33;7.85;;;12.80;91.30;;;;;;9166229;19;20472;-72
2023/11/19 09:25:27;;;;;;;51.38;8.20;;;12.80;91.30;;;;;;9167903;19;20027;-73
2023/11/19 09:28:51;;;;;;;57.30;7.13;;;12.90;91.30;;;;;;9160489;19;20014;-72
2023/11/19 09:31:59;;;;;;;51.33;6.55;;;12.90;91.20;;;;;;9166394;19;20464;-72
2023/11/19 09:35:08;;;;;;;53.22;6.38;;;12.90;91.20;;;;;;9168014;19;20017;-72
2023/11/19 09:38:14;;;;;;;56.00;7.03;;;13.00;91.10;;;;;;9161398;19;20058;-72
2023/11/19 09:41:21;;;;;;;40.38;8.98;;;13.00;91.10;;;;;;9158693;19;20775;-73
2023/11/19 09:44:27;;;;;;;53.30;6.90;;;13.00;91.10;;;;;;9159351;19;20010;-70
2023/11/19 09:47:37;;;;;;;38.67;6.95;;;13.10;91.10;;;;;;9166978;19;20033;-72
2023/11/19 09:50:43;;;;;;;45.67;7.28;;;13.10;91.00;;;;;;9165820;19;20014;-71
2023/11/19 09:53:51;;;;;;;32.67;6.25;;;13.10;91.00;;;;;;9164051;19;20022;-72
2023/11/19 09:57:02;;;;;;;44.53;5.10;;;13.10;91.00;;;;;;9162499;19;20014;-72
2023/11/19 10:00:13;;;;;;;44.47;6.88;;;13.20;91.00;;;;;;9164783;19;20022;-71
2023/11/19 10:03:21;;;;;;;42.47;5.78;;;13.20;90.90;;;;;;9162487;19;20025;-71
2023/11/19 10:06:29;;;;;;;51.92;8.02;;;13.20;90.90;;;;;;9167384;19;20019;-70
2023/11/19 10:09:35;;;;;;;39.72;5.75;;;13.20;90.90;;;;;;9166850;19;20111;-72
2023/11/19 10:12:42;;;;;;;42.78;6.47;;;13.20;90.90;;;;;;9164940;19;20836;-70
2023/11/19 10:15:52;;;;;;;44.83;6.25;;;13.20;90.90;;;;;;9167184;19;20054;-71
2023/11/19 10:19:02;;;;;;;51.72;7.35;;;13.30;90.90;;;;;;9165215;19;20023;-70
2023/11/19 10:22:07;;;;;;;63.88;8.52;;;13.30;90.80;;;;;;9164573;19;20026;-69
2023/11/19 10:25:28;;;;;;;40.63;5.32;;;13.30;90.80;;;;;;9165988;19;20488;-75
2023/11/19 10:28:44;;;;;;;51.00;7.45;;;13.30;90.80;;;;;;9166386;19;20014;-71
2023/11/19 10:31:59;;;;;;;52.00;7.03;;;13.40;90.80;;;;;;9164825;19;20021;-71
2023/11/19 10:35:27;;;;;;;44.08;6.25;;;13.40;91.20;;;;;;9165895;19;20025;-72
2023/11/19 10:38:34;;;;;;;32.42;5.35;;;13.50;91.00;;;;;;9163568;19;20366;-71
2023/11/19 10:41:40;;;;;;;42.00;6.47;;;13.40;90.90;;;;;;9165521;19;20045;-71
2023/11/19 10:44:48;;;;;;;53.05;8.18;;;13.50;91.10;;;;;;9162049;19;20597;-69
2023/11/19 10:47:54;;;;;;;43.78;7.55;;;13.50;91.00;;;;;;9166119;19;20016;-72
2023/11/19 10:51:10;;;;;;;45.85;6.53;;;13.50;90.70;;;;;;9165076;19;20360;-70
2023/11/19 10:54:19;;;;;;;48.08;6.85;;;13.50;90.60;;;;;;9173171;19;20015;-72
2023/11/19 10:57:32;;;;;;;38.53;5.10;;;13.60;90.60;;;;;;9169133;19;20375;-72
2023/11/19 11:00:42;;;;;;;41.72;6.80;;;13.60;90.60;;;;;;9169367;19;20042;-72
2023/11/19 11:03:51;;;;;;;43.63;5.50;;;13.60;90.60;;;;;;9170677;19;20042;-73
2023/11/19 11:07:02;;;;;;;53.90;7.53;;;13.70;90.60;;;;;;9170793;19;20010;-73
2023/11/19 11:10:11;;;;;;;32.03;4.13;;;13.70;90.50;;;;;;9166103;19;20307;-72
2023/11/19 11:13:17;;;;;;;44.78;5.85;;;13.70;90.50;;;;;;9168137;19;20018;-72
2023/11/19 11:16:26;;;;;;;45.80;6.50;;;13.80;90.50;;;;;;9172768;19;20017;-72
2023/11/19 11:19:31;;;;;;;45.83;7.15;;;13.80;90.50;;;;;;9173441;19;20696;-72
2023/11/19 11:22:52;;;;;;;53.38;5.85;;;13.80;90.40;;;;;;9162693;19;20019;-71
2023/11/19 11:26:09;;;;;;;55.33;6.72;;;13.90;90.30;;;;;;9164111;19;20095;-72
2023/11/19 11:29:23;;;;;;;49.10;6.30;;;13.90;90.30;;;;;;9175265;19;20021;-73
2023/11/19 11:32:37;;;;;;;39.55;6.80;;;13.90;90.30;;;;;;9177912;19;20029;-74
2023/11/19 11:35:55;;;;;;;35.63;6.10;;;13.90;90.20;;;;;;9170872;19;20258;-73
2023/11/19 11:39:07;;;;;;;42.60;5.78;;;13.90;90.20;;;;;;9170649;19;20472;-73
2023/11/19 11:42:34;;;;;;;41.38;5.82;;;13.90;90.20;;;;;;9167965;19;20041;-75
2023/11/19 11:45:42;;;;;;;45.25;7.45;;;13.90;90.10;;;;;;9169936;19;20333;-74
2023/11/19 11:48:52;;;;;;;44.45;6.50;;;13.90;90.20;;;;;;9169306;19;20341;-73
2023/11/19 11:52:03;;;;;;;46.10;6.20;;;13.90;90.10;;;;;;9167610;19;20078;-73
2023/11/19 11:55:14;;;;;;;56.08;6.13;;;13.90;90.10;;;;;;9168024;19;20022;-72
2023/11/19 11:58:20;;;;;;;37.42;5.70;;;13.90;90.10;;;;;;9169394;19;20106;-72
2023/11/19 12:01:29;;;;;;;39.95;5.90;;;13.90;90.10;;;;;;9163662;19;20707;-72
2023/11/19 12:04:37;;;;;;;34.10;5.30;;;13.90;90.00;;;;;;9162878;19;20495;-72
2023/11/19 12:07:58;;;;;;;35.40;5.55;;;13.90;90.00;;;;;;9162690;19;20126;-71
2023/11/19 12:11:08;;;;;;;33.55;4.88;;;13.90;89.90;;;;;;9162068;19;20043;-72
2023/11/19 12:14:16;;;;;;;34.63;5.45;;;13.90;89.90;;;;;;9160052;19;20045;-73
2023/11/19 12:17:49;;;;;;;44.92;5.05;;;13.90;89.80;;;;;;9163473;19;20015;-73
2023/11/19 12:21:00;;;;;;;43.55;6.18;;;13.80;89.60;;;;;;9158943;19;20011;-73
2023/11/19 12:24:07;;;;;;;30.67;4.55;;;13.80;89.80;;;;;;9156997;19;20015;-73
2023/11/19 12:27:17;;;;;;;30.65;4.82;;;13.80;89.70;;;;;;9164017;19;20045;-73
2023/11/19 12:30:26;;;;;;;42.35;6.38;;;13.80;89.60;;;;;;9018340;19;2778286;-72
2023/11/19 12:33:34;;;;;;;34.42;5.78;;;13.80;89.70;;;;;;9163908;19;20352;-73
2023/11/19 12:36:40;;;;;;;39.72;5.85;;;13.80;89.60;;;;;;9166218;19;20380;-74
2023/11/19 12:39:48;;;;;;;21.25;3.25;;;13.70;89.70;;;;;;9165101;19;20029;-74
2023/11/19 12:42:57;;;;;;;36.00;4.82;;;13.70;89.50;;;;;;9163299;19;20051;-73
2023/11/19 12:46:05;;;;;;;25.30;3.65;;;13.60;89.50;;;;;;9161987;19;20025;-73
2023/11/19 12:49:14;;;;;;;32.75;4.15;;;13.60;89.60;;;;;;9172078;19;20475;-74
2023/11/19 12:52:23;;;;;;;40.50;4.57;;;13.50;89.60;;;;;;9169928;19;20018;-74
2023/11/19 12:55:30;;;;;;;34.90;5.43;;;13.50;89.70;;;;;;9171434;19;20951;-75
2023/11/19 12:58:42;;;;;;;30.02;3.42;;;13.50;89.80;;;;;;9171896;19;20086;-75
2023/11/19 13:01:57;;;;;;;34.92;4.90;;;13.40;89.70;;;;;;9171590;19;20833;-72
2023/11/19 13:05:24;;;;;;;33.42;5.30;;;13.40;89.70;;;;;;9169325;19;20014;-74
2023/11/19 13:08:29;;;;;;;;;;;13.40;89.60;;;;;;9170668;19;20026;-72
2023/11/19 13:11:40;;;;;;;40.83;5.15;;;13.40;89.80;;;;;;9171512;19;19914;-71
2023/11/19 13:14:49;;;;;;;35.47;4.78;;;13.30;89.90;;;;;;9169403;19;20516;-72
2023/11/19 13:17:57;;;;;;;36.95;5.20;;;13.30;89.90;;;;;;9172085;19;20025;-71
2023/11/19 13:21:02;;;;;;;29.00;5.30;;;13.30;89.90;;;;;;9171060;19;20026;-70
2023/11/19 13:24:10;;;;;;;30.08;5.25;;;13.30;90.00;;;;;;9171818;19;20114;-71
2023/11/19 13:27:16;;;;;;;40.92;5.45;;;13.30;90.00;;;;;;9169994;19;20110;-72
2023/11/19 13:30:27;;;;;;;34.85;5.45;;;13.20;90.00;;;;;;9169576;19;20026;-72
2023/11/19 13:33:33;;;;;;;33.03;4.07;;;13.20;90.00;;;;;;9169989;19;20367;-71
2023/11/19 13:36:41;;;;;;;29.13;4.38;;;13.20;90.00;;;;;;9170644;19;20475;-71
2023/11/19 13:39:46;;;;;;;38.97;5.03;;;13.20;90.10;;;;;;9167161;19;20021;-70
2023/11/19 13:42:53;;;;;;;33.72;4.82;;;13.20;90.00;;;;;;9164260;19;20015;-71
2023/11/19 13:46:01;;;;;;;37.85;5.03;;;13.20;90.00;;;;;;9168098;19;20022;-70
2023/11/19 13:49:10;;;;;;;29.92;5.38;;;13.20;90.00;;;;;;9169058;19;20018;-72
2023/11/19 13:52:15;;;;;;;31.88;5.20;;;13.10;90.00;;;;;;9168870;19;20082;-71
2023/11/19 13:55:23;;;;;;;37.20;5.22;;;13.10;90.00;;;;;;9170105;19;20029;-71
2023/11/19 13:58:28;;;;;;;40.17;5.20;;;13.10;90.10;;;;;;9170588;19;20612;-70
2023/11/19 14:01:38;;;;;;;27.80;4.45;;;13.10;90.10;;;;;;9167897;19;20029;-71
2023/11/19 14:04:44;;;;;;;30.38;5.88;;;13.10;90.10;;;;;;9167867;19;20023;-72
2023/11/19 14:07:51;;;;;;;31.80;4.60;;;13.10;90.10;;;;;;9167429;19;20018;-72
2023/11/19 14:10:57;;;;;;;36.30;5.57;;;13.70;90.30;;;;;;9169288;19;20014;-72
2023/11/19 14:14:08;;;;;;;30.00;4.75;;;13.10;90.60;;;;;;9166410;19;20022;-73
2023/11/19 14:17:16;;;;;;;28.13;4.25;;;13.10;90.20;;;;;;9168682;19;20011;-71
2023/11/19 14:20:24;;;;;;;37.10;5.10;;;13.10;90.20;;;;;;9168625;19;20018;-71
2023/11/19 14:23:29;;;;;;;34.00;5.13;;;13.20;91.00;;;;;;9167329;19;20503;-72
2023/11/19 14:26:37;;;;;;;36.40;4.38;;;13.00;90.30;;;;;;9168110;19;20642;-72
2023/11/19 14:29:43;;;;;;;27.92;5.32;;;13.00;90.20;;;;;;9168820;19;20115;-73
2023/11/19 14:32:53;;;;;;;32.72;4.30;;;13.00;90.20;;;;;;9165304;19;20348;-73
2023/11/19 14:35:59;;;;;;;21.00;4.32;;;13.00;90.20;;;;;;9167343;19;20010;-73
2023/11/19 14:39:07;;;;;;;31.95;4.90;;;13.00;90.10;;;;;;9168582;19;20006;-73
2023/11/19 14:42:13;;;;;;;29.83;4.55;;;13.00;90.10;;;;;;9168363;19;20022;-73
2023/11/19 14:45:21;;;;;;;38.10;4.40;;;13.00;90.10;;;;;;9161222;19;20021;-73
2023/11/19 14:48:29;;;;;;;34.65;3.88;;;13.00;90.10;;;;;;9165584;19;20338;-73
2023/11/19 14:51:38;;;;;;;36.03;5.88;;;13.00;90.20;;;;;;9167203;19;20021;-74
2023/11/19 14:54:44;;;;;;;31.77;5.38;;;12.90;90.10;;;;;;9166407;19;20018;-73
2023/11/19 14:57:52;;;;;;;37.13;5.75;;;13.00;90.20;;;;;;9166964;19;20487;-73
2023/11/19 15:01:15;;;;;;;36.35;5.38;;;12.90;90.10;;;;;;9166363;19;20015;-74
2023/11/19 15:04:25;;;;;;;31.55;4.82;;;12.90;90.10;;;;;;9167699;19;20014;-75
2023/11/19 15:07:31;;;;;;;31.63;5.40;;;12.90;90.20;;;;;;9166584;19;20026;-73
2023/11/19 15:10:38;;;;;;;36.63;5.43;;;12.90;90.20;;;;;;9163309;19;20017;-73
2023/11/19 15:13:44;;;;;;;26.42;5.35;;;12.90;90.20;;;;;;9164555;19;20081;-75
2023/11/19 15:16:53;;;;;;;34.03;5.60;;;12.90;90.20;;;;;;9161017;19;20332;-75
2023/11/19 15:20:02;;;;;;;25.48;4.55;;;12.90;90.20;;;;;;9159019;19;20022;-72
2023/11/19 15:23:10;;;;;;;21.48;3.63;;;12.80;90.30;;;;;;9161593;19;20863;-74
2023/11/19 15:26:15;;;;;;;18.75;3.47;;;12.80;90.20;;;;;;9162417;19;20583;-73
2023/11/19 15:29:23;;;;;;;26.15;4.53;;;12.80;90.20;;;;;;9162847;19;20021;-74
2023/11/19 15:32:31;;;;;;;28.65;4.53;;;12.80;90.20;;;;;;9161046;19;20018;-73
2023/11/19 15:35:41;;;;;;;24.02;3.33;;;12.80;90.30;;;;;;9159736;19;20018;-73
2023/11/19 15:38:48;;;;;;;20.48;3.65;;;13.00;90.30;;;;;;9165055;19;20093;-73
2023/11/19 15:41:59;;;;;;;30.10;4.07;;;12.70;90.30;;;;;;9165926;19;20025;-74
2023/11/19 15:45:06;;;;;;;22.17;3.83;;;12.70;90.30;;;;;;9155508;19;20310;-74
2023/11/19 15:48:14;;;;;;;26.38;3.85;;;12.70;90.30;;;;;;9164252;19;20483;-74
2023/11/19 15:51:22;;;;;;;27.38;3.45;;;12.70;90.40;;;;;;9160789;19;20014;-73
2023/11/19 15:54:29;;;;;;;32.00;4.20;;;12.70;90.40;;;;;;9163841;19;20017;-73
2023/11/19 15:57:35;;;;;;;30.50;4.75;;;12.70;90.40;;;;;;9163035;19;20018;-73
2023/11/19 16:00:46;;;;;;;24.77;3.95;;;12.60;90.30;;;;;;9161357;19;20033;-73
2023/11/19 16:03:51;;;;;;;22.25;3.88;;;12.60;90.40;;;;;;9161358;19;20018;-73
2023/11/19 16:07:02;;;;;;;28.98;4.32;;;12.60;90.40;;;;;;9162190;19;20025;-73